sensor_id;sensor_type;location;lat;lon;timestamp;pressure;altitude;pressure_sealevel;temperature;humidity
14117;BME280;7137;51.436;6.544;2023-03-21T00:01:05;101280.78;;;11.25;86.04
14117;BME280;7137;51.436;6.544;2023-03-21T00:04:06;101276.00;;;11.07;86.76
14117;BME280;7137;51.436;6.544;2023-03-21T00:07:08;101278.06;;;11.30;86.48
14117;BME280;7137;51.436;6.544;2023-03-21T00:10:11;101282.88;;;11.11;86.31
14117;BME280;7137;51.436;6.544;2023-03-21T00:13:14;101276.78;;;11.12;85.95
14117;BME280;7137;51.436;6.544;2023-03-21T00:16:17;101273.16;;;11.18;85.60
14117;BME280;7137;51.436;6.544;2023-03-21T00:19:19;101277.81;;;11.05;85.97
14117;BME280;7137;51.436;6.544;2023-03-21T00:22:22;101275.66;;;10.87;86.36
14117;BME280;7137;51.436;6.544;2023-03-21T00:25:25;101277.00;;;11.03;86.08
14117;BME280;7137;51.436;6.544;2023-03-21T00:28:26;101269.59;;;10.85;87.23
14117;BME280;7137;51.436;6.544;2023-03-21T00:31:28;101271.13;;;10.93;87.14
14117;BME280;7137;51.436;6.544;2023-03-21T00:34:30;101269.28;;;10.97;87.87
14117;BME280;7137;51.436;6.544;2023-03-21T00:37:32;101263.06;;;11.03;87.17
14117;BME280;7137;51.436;6.544;2023-03-21T00:40:35;101259.44;;;10.73;88.82
14117;BME280;7137;51.436;6.544;2023-03-21T00:43:37;101252.25;;;10.81;88.75
14117;BME280;7137;51.436;6.544;2023-03-21T00:46:39;101260.81;;;10.87;89.19
14117;BME280;7137;51.436;6.544;2023-03-21T00:49:41;101253.41;;;10.69;90.36
14117;BME280;7137;51.436;6.544;2023-03-21T00:52:42;101248.78;;;10.80;89.64
14117;BME280;7137;51.436;6.544;2023-03-21T00:55:46;101241.91;;;10.76;89.61
14117;BME280;7137;51.436;6.544;2023-03-21T00:58:47;101244.75;;;10.67;90.13
14117;BME280;7137;51.436;6.544;2023-03-21T01:01:50;101246.81;;;10.53;90.27
14117;BME280;7137;51.436;6.544;2023-03-21T01:04:53;101231.34;;;10.45;91.34
14117;BME280;7137;51.436;6.544;2023-03-21T01:07:54;101230.03;;;10.63;90.74
14117;BME280;7137;51.436;6.544;2023-03-21T01:11:00;101224.69;;;10.67;89.95
14117;BME280;7137;51.436;6.544;2023-03-21T01:14:02;101229.84;;;10.72;88.83
14117;BME280;7137;51.436;6.544;2023-03-21T01:17:04;101229.72;;;10.77;89.58
14117;BME280;7137;51.436;6.544;2023-03-21T01:20:06;101228.00;;;10.76;89.68
14117;BME280;7137;51.436;6.544;2023-03-21T01:23:11;101226.84;;;10.87;88.61
14117;BME280;7137;51.436;6.544;2023-03-21T01:26:14;101224.31;;;10.83;88.68
14117;BME280;7137;51.436;6.544;2023-03-21T01:29:16;101218.28;;;10.81;88.47
14117;BME280;7137;51.436;6.544;2023-03-21T01:32:18;101224.53;;;10.75;88.26
14117;BME280;7137;51.436;6.544;2023-03-21T01:35:20;101222.59;;;10.82;88.10
14117;BME280;7137;51.436;6.544;2023-03-21T01:38:21;101229.75;;;10.75;88.71
14117;BME280;7137;51.436;6.544;2023-03-21T01:41:27;101217.72;;;10.68;89.26
14117;BME280;7137;51.436;6.544;2023-03-21T01:44:29;101223.91;;;10.64;89.18
14117;BME280;7137;51.436;6.544;2023-03-21T01:47:31;101217.94;;;10.59;89.81
14117;BME280;7137;51.436;6.544;2023-03-21T01:50:32;101212.16;;;10.82;89.57
14117;BME280;7137;51.436;6.544;2023-03-21T01:53:38;101208.88;;;10.74;90.16
14117;BME280;7137;51.436;6.544;2023-03-21T01:56:43;101212.31;;;10.76;89.99
14117;BME280;7137;51.436;6.544;2023-03-21T01:59:49;101208.81;;;10.77;89.62
14117;BME280;7137;51.436;6.544;2023-03-21T02:02:51;101199.59;;;10.62;90.32
14117;BME280;7137;51.436;6.544;2023-03-21T02:05:58;101185.13;;;10.83;89.83
14117;BME280;7137;51.436;6.544;2023-03-21T02:09:03;101183.22;;;10.89;89.65
14117;BME280;7137;51.436;6.544;2023-03-21T02:12:09;101173.47;;;10.62;90.84
14117;BME280;7137;51.436;6.544;2023-03-21T02:15:11;101173.28;;;11.04;89.34
14117;BME280;7137;51.436;6.544;2023-03-21T02:18:18;101185.75;;;10.92;89.92
14117;BME280;7137;51.436;6.544;2023-03-21T02:21:35;101175.31;;;10.92;89.89
14117;BME280;7137;51.436;6.544;2023-03-21T02:28:14;101168.78;;;11.09;89.83
14117;BME280;7137;51.436;6.544;2023-03-21T02:31:25;101161.88;;;11.06;89.82
14117;BME280;7137;51.436;6.544;2023-03-21T02:34:47;101167.66;;;11.19;89.25
14117;BME280;7137;51.436;6.544;2023-03-21T02:37:56;101159.97;;;11.13;89.78
14117;BME280;7137;51.436;6.544;2023-03-21T02:45:00;101147.91;;;11.07;89.52
14117;BME280;7137;51.436;6.544;2023-03-21T02:48:06;101154.66;;;11.16;89.17
14117;BME280;7137;51.436;6.544;2023-03-21T02:51:13;101151.47;;;11.05;90.35
14117;BME280;7137;51.436;6.544;2023-03-21T02:54:19;101153.59;;;11.23;88.27
14117;BME280;7137;51.436;6.544;2023-03-21T02:57:22;101135.66;;;11.09;89.29
14117;BME280;7137;51.436;6.544;2023-03-21T03:00:25;101140.88;;;11.09;88.92
14117;BME280;7137;51.436;6.544;2023-03-21T03:03:28;101143.44;;;11.11;89.27
14117;BME280;7137;51.436;6.544;2023-03-21T03:06:36;101135.56;;;11.14;88.63
14117;BME280;7137;51.436;6.544;2023-03-21T03:09:57;101129.16;;;10.91;90.06
14117;BME280;7137;51.436;6.544;2023-03-21T03:13:13;101138.00;;;10.87;90.20
14117;BME280;7137;51.436;6.544;2023-03-21T03:16:21;101127.31;;;10.95;89.47
14117;BME280;7137;51.436;6.544;2023-03-21T03:19:27;101132.50;;;10.98;88.87
14117;BME280;7137;51.436;6.544;2023-03-21T03:22:33;101131.88;;;10.88;89.31
14117;BME280;7137;51.436;6.544;2023-03-21T03:25:43;101130.47;;;10.75;89.15
14117;BME280;7137;51.436;6.544;2023-03-21T03:28:50;101128.41;;;10.88;89.67
14117;BME280;7137;51.436;6.544;2023-03-21T03:31:55;101130.19;;;10.86;89.51
14117;BME280;7137;51.436;6.544;2023-03-21T03:34:58;101129.22;;;10.90;88.67
14117;BME280;7137;51.436;6.544;2023-03-21T03:38:02;101117.97;;;10.86;89.01
14117;BME280;7137;51.436;6.544;2023-03-21T03:41:09;101118.03;;;10.83;88.96
14117;BME280;7137;51.436;6.544;2023-03-21T03:44:13;101122.13;;;10.61;89.44
14117;BME280;7137;51.436;6.544;2023-03-21T03:47:20;101124.59;;;10.99;88.42
14117;BME280;7137;51.436;6.544;2023-03-21T03:50:27;101116.81;;;10.98;88.86
14117;BME280;7137;51.436;6.544;2023-03-21T03:53:34;101117.00;;;10.90;88.43
14117;BME280;7137;51.436;6.544;2023-03-21T03:56:39;101121.94;;;11.01;88.36
14117;BME280;7137;51.436;6.544;2023-03-21T03:59:43;101120.88;;;11.08;87.68
14117;BME280;7137;51.436;6.544;2023-03-21T04:02:46;101112.97;;;11.10;88.25
14117;BME280;7137;51.436;6.544;2023-03-21T04:05:48;101120.00;;;11.08;87.89
14117;BME280;7137;51.436;6.544;2023-03-21T04:08:49;101119.97;;;11.09;88.81
14117;BME280;7137;51.436;6.544;2023-03-21T04:11:52;101124.66;;;10.96;90.00
14117;BME280;7137;51.436;6.544;2023-03-21T04:14:54;101119.47;;;10.95;90.89
14117;BME280;7137;51.436;6.544;2023-03-21T04:17:55;101116.81;;;10.96;91.83
14117;BME280;7137;51.436;6.544;2023-03-21T04:20:57;101108.44;;;10.85;92.02
14117;BME280;7137;51.436;6.544;2023-03-21T04:23:58;101099.25;;;10.70;93.93
14117;BME280;7137;51.436;6.544;2023-03-21T04:27:02;101094.06;;;10.67;94.09
14117;BME280;7137;51.436;6.544;2023-03-21T04:30:05;101100.53;;;10.53;96.19
14117;BME280;7137;51.436;6.544;2023-03-21T04:33:07;101098.00;;;10.50;97.35
14117;BME280;7137;51.436;6.544;2023-03-21T04:36:09;101090.31;;;10.45;97.50
14117;BME280;7137;51.436;6.544;2023-03-21T04:39:26;101089.88;;;10.26;98.71
14117;BME280;7137;51.436;6.544;2023-03-21T04:42:29;101092.47;;;10.26;99.10
14117;BME280;7137;51.436;6.544;2023-03-21T04:45:30;101095.03;;;10.29;100.00
14117;BME280;7137;51.436;6.544;2023-03-21T04:48:32;101097.50;;;10.35;100.00
14117;BME280;7137;51.436;6.544;2023-03-21T04:51:34;101086.72;;;10.10;100.00
14117;BME280;7137;51.436;6.544;2023-03-21T04:54:35;101087.47;;;10.17;100.00
14117;BME280;7137;51.436;6.544;2023-03-21T04:57:38;101078.56;;;10.26;100.00
14117;BME280;7137;51.436;6.544;2023-03-21T05:00:40;101082.72;;;10.34;100.00
14117;BME280;7137;51.436;6.544;2023-03-21T05:03:41;101079.38;;;10.29;100.00
14117;BME280;7137;51.436;6.544;2023-03-21T05:06:44;101092.56;;;10.23;100.00
14117;BME280;7137;51.436;6.544;2023-03-21T05:09:46;101087.25;;;10.26;100.00
14117;BME280;7137;51.436;6.544;2023-03-21T05:12:48;101086.22;;;10.33;100.00
14117;BME280;7137;51.436;6.544;2023-03-21T05:15:50;101090.69;;;10.30;100.00
14117;BME280;7137;51.436;6.544;2023-03-21T05:18:52;101081.34;;;10.18;100.00
14117;BME280;7137;51.436;6.544;2023-03-21T05:21:53;101074.19;;;10.28;100.00
14117;BME280;7137;51.436;6.544;2023-03-21T05:24:55;101070.84;;;10.21;100.00
14117;BME280;7137;51.436;6.544;2023-03-21T05:27:58;101064.63;;;10.27;100.00
14117;BME280;7137;51.436;6.544;2023-03-21T05:31:01;101065.59;;;10.23;100.00
14117;BME280;7137;51.436;6.544;2023-03-21T05:34:03;101061.31;;;10.19;100.00
14117;BME280;7137;51.436;6.544;2023-03-21T05:37:04;101060.44;;;10.20;100.00
14117;BME280;7137;51.436;6.544;2023-03-21T05:40:07;101063.38;;;10.06;100.00
14117;BME280;7137;51.436;6.544;2023-03-21T05:43:10;101064.09;;;10.11;100.00
14117;BME280;7137;51.436;6.544;2023-03-21T05:46:12;101056.19;;;10.16;100.00
14117;BME280;7137;51.436;6.544;2023-03-21T05:49:13;101061.66;;;10.05;100.00
14117;BME280;7137;51.436;6.544;2023-03-21T05:52:15;101068.28;;;10.18;100.00
14117;BME280;7137;51.436;6.544;2023-03-21T05:55:17;101065.84;;;10.10;100.00
14117;BME280;7137;51.436;6.544;2023-03-21T05:58:19;101066.41;;;10.25;100.00
14117;BME280;7137;51.436;6.544;2023-03-21T06:01:21;101070.81;;;10.23;100.00
14117;BME280;7137;51.436;6.544;2023-03-21T06:04:23;101058.63;;;10.23;100.00
14117;BME280;7137;51.436;6.544;2023-03-21T06:07:24;101067.94;;;10.33;100.00
14117;BME280;7137;51.436;6.544;2023-03-21T06:10:26;101066.16;;;10.35;100.00
14117;BME280;7137;51.436;6.544;2023-03-21T06:13:29;101063.53;;;10.35;100.00
14117;BME280;7137;51.436;6.544;2023-03-21T06:16:32;101068.94;;;10.29;100.00
14117;BME280;7137;51.436;6.544;2023-03-21T06:19:33;101076.94;;;10.22;100.00
14117;BME280;7137;51.436;6.544;2023-03-21T06:22:35;101072.69;;;10.16;100.00
14117;BME280;7137;51.436;6.544;2023-03-21T06:25:36;101074.84;;;10.36;100.00
14117;BME280;7137;51.436;6.544;2023-03-21T06:28:39;101072.78;;;10.49;100.00
14117;BME280;7137;51.436;6.544;2023-03-21T06:31:41;101070.44;;;10.38;100.00
14117;BME280;7137;51.436;6.544;2023-03-21T06:34:45;101073.78;;;10.45;100.00
14117;BME280;7137;51.436;6.544;2023-03-21T06:37:47;101071.75;;;10.54;100.00
14117;BME280;7137;51.436;6.544;2023-03-21T06:40:50;101066.03;;;10.42;99.97
14117;BME280;7137;51.436;6.544;2023-03-21T06:43:53;101060.19;;;10.64;99.87
14117;BME280;7137;51.436;6.544;2023-03-21T06:46:55;101065.31;;;10.67;100.00
14117;BME280;7137;51.436;6.544;2023-03-21T06:49:56;101058.38;;;10.66;98.97
14117;BME280;7137;51.436;6.544;2023-03-21T06:52:58;101065.28;;;10.70;99.59
14117;BME280;7137;51.436;6.544;2023-03-21T06:55:59;101061.41;;;10.84;98.90
14117;BME280;7137;51.436;6.544;2023-03-21T06:59:02;101065.84;;;10.80;99.67
14117;BME280;7137;51.436;6.544;2023-03-21T07:02:05;101060.53;;;10.85;99.36
14117;BME280;7137;51.436;6.544;2023-03-21T07:05:07;101055.56;;;11.07;99.23
14117;BME280;7137;51.436;6.544;2023-03-21T07:08:09;101068.00;;;11.29;97.56
14117;BME280;7137;51.436;6.544;2023-03-21T07:11:13;101061.94;;;11.27;97.08
14117;BME280;7137;51.436;6.544;2023-03-21T07:14:16;101066.59;;;11.47;95.47
14117;BME280;7137;51.436;6.544;2023-03-21T07:17:17;101077.25;;;11.40;96.00
14117;BME280;7137;51.436;6.544;2023-03-21T07:20:19;101062.38;;;11.43;94.68
14117;BME280;7137;51.436;6.544;2023-03-21T07:23:22;101061.63;;;11.38;94.66
14117;BME280;7137;51.436;6.544;2023-03-21T07:26:24;101059.19;;;11.32;93.53
14117;BME280;7137;51.436;6.544;2023-03-21T07:29:27;101054.09;;;11.57;93.05
14117;BME280;7137;51.436;6.544;2023-03-21T07:32:31;101062.00;;;11.55;92.79
14117;BME280;7137;51.436;6.544;2023-03-21T07:35:33;101063.41;;;11.66;92.40
14117;BME280;7137;51.436;6.544;2023-03-21T07:38:35;101061.75;;;11.63;91.54
14117;BME280;7137;51.436;6.544;2023-03-21T07:41:36;101059.69;;;11.74;90.76
14117;BME280;7137;51.436;6.544;2023-03-21T07:44:39;101052.94;;;11.66;93.13
14117;BME280;7137;51.436;6.544;2023-03-21T07:47:41;101062.72;;;11.60;92.48
14117;BME280;7137;51.436;6.544;2023-03-21T07:50:43;101052.28;;;11.88;91.39
14117;BME280;7137;51.436;6.544;2023-03-21T07:53:44;101059.34;;;11.86;90.06
14117;BME280;7137;51.436;6.544;2023-03-21T07:56:47;101057.63;;;11.85;92.06
14117;BME280;7137;51.436;6.544;2023-03-21T07:59:50;101065.75;;;11.75;93.47
14117;BME280;7137;51.436;6.544;2023-03-21T08:02:53;101058.16;;;11.97;93.20
14117;BME280;7137;51.436;6.544;2023-03-21T08:05:55;101070.72;;;11.85;93.45
14117;BME280;7137;51.436;6.544;2023-03-21T08:08:56;101070.75;;;11.84;92.97
14117;BME280;7137;51.436;6.544;2023-03-21T08:11:58;101074.19;;;11.86;93.04
14117;BME280;7137;51.436;6.544;2023-03-21T08:15:01;101071.47;;;11.89;92.92
14117;BME280;7137;51.436;6.544;2023-03-21T08:18:02;101072.38;;;11.58;92.15
14117;BME280;7137;51.436;6.544;2023-03-21T08:21:04;101076.50;;;11.66;94.28
14117;BME280;7137;51.436;6.544;2023-03-21T08:24:06;101071.63;;;11.53;94.05
14117;BME280;7137;51.436;6.544;2023-03-21T08:27:07;101072.84;;;11.71;95.18
14117;BME280;7137;51.436;6.544;2023-03-21T08:30:12;101065.91;;;11.70;94.65
14117;BME280;7137;51.436;6.544;2023-03-21T08:33:14;101067.94;;;11.90;94.93
14117;BME280;7137;51.436;6.544;2023-03-21T08:36:16;101067.50;;;12.04;95.96
14117;BME280;7137;51.436;6.544;2023-03-21T08:39:17;101080.13;;;11.91;93.97
14117;BME280;7137;51.436;6.544;2023-03-21T08:42:21;101072.94;;;11.98;94.77
14117;BME280;7137;51.436;6.544;2023-03-21T08:45:24;101073.66;;;12.03;93.01
14117;BME280;7137;51.436;6.544;2023-03-21T08:48:26;101080.59;;;12.04;93.52
14117;BME280;7137;51.436;6.544;2023-03-21T08:51:27;101084.88;;;12.06;93.51
14117;BME280;7137;51.436;6.544;2023-03-21T08:54:29;101083.59;;;11.92;96.99
14117;BME280;7137;51.436;6.544;2023-03-21T08:57:30;101078.00;;;11.74;96.55
14117;BME280;7137;51.436;6.544;2023-03-21T09:00:33;101083.91;;;11.82;97.96
14117;BME280;7137;51.436;6.544;2023-03-21T09:03:35;101079.59;;;11.78;98.34
14117;BME280;7137;51.436;6.544;2023-03-21T09:06:37;101078.94;;;11.72;98.25
14117;BME280;7137;51.436;6.544;2023-03-21T09:09:40;101077.19;;;11.72;100.00
14117;BME280;7137;51.436;6.544;2023-03-21T09:12:42;101078.63;;;11.84;98.51
14117;BME280;7137;51.436;6.544;2023-03-21T09:15:45;101070.75;;;11.84;98.80
14117;BME280;7137;51.436;6.544;2023-03-21T09:18:47;101067.56;;;12.02;99.08
14117;BME280;7137;51.436;6.544;2023-03-21T09:21:49;101061.53;;;12.00;97.57
14117;BME280;7137;51.436;6.544;2023-03-21T09:28:49;101064.16;;;12.52;96.23
14117;BME280;7137;51.436;6.544;2023-03-21T09:31:52;101064.78;;;12.33;94.97
14117;BME280;7137;51.436;6.544;2023-03-21T09:34:54;101052.38;;;12.38;94.37
14117;BME280;7137;51.436;6.544;2023-03-21T09:37:56;101064.28;;;12.48;95.70
14117;BME280;7137;51.436;6.544;2023-03-21T09:41:06;101064.09;;;12.55;92.79
14117;BME280;7137;51.436;6.544;2023-03-21T09:44:21;101061.75;;;12.72;91.73
14117;BME280;7137;51.436;6.544;2023-03-21T09:47:29;101058.91;;;12.53;93.10
14117;BME280;7137;51.436;6.544;2023-03-21T09:50:39;101051.41;;;12.42;92.19
14117;BME280;7137;51.436;6.544;2023-03-21T09:53:43;101039.28;;;12.40;91.77
14117;BME280;7137;51.436;6.544;2023-03-21T09:56:48;101043.94;;;12.30;90.57
14117;BME280;7137;51.436;6.544;2023-03-21T09:59:53;101043.22;;;12.52;92.67
14117;BME280;7137;51.436;6.544;2023-03-21T10:03:00;101035.72;;;12.66;92.50
14117;BME280;7137;51.436;6.544;2023-03-21T10:06:10;101037.78;;;12.58;91.76
14117;BME280;7137;51.436;6.544;2023-03-21T10:09:16;101030.50;;;12.41;93.69
14117;BME280;7137;51.436;6.544;2023-03-21T10:12:25;101026.41;;;12.32;95.86
14117;BME280;7137;51.436;6.544;2023-03-21T10:15:29;101032.81;;;12.24;95.18
14117;BME280;7137;51.436;6.544;2023-03-21T10:18:32;101026.72;;;11.97;98.27
14117;BME280;7137;51.436;6.544;2023-03-21T10:21:37;101015.13;;;11.76;99.39
14117;BME280;7137;51.436;6.544;2023-03-21T10:24:42;101005.25;;;11.57;100.00
14117;BME280;7137;51.436;6.544;2023-03-21T10:27:45;101011.28;;;11.59;100.00
14117;BME280;7137;51.436;6.544;2023-03-21T10:30:49;100989.66;;;11.53;100.00
14117;BME280;7137;51.436;6.544;2023-03-21T10:33:55;100990.78;;;11.46;100.00
14117;BME280;7137;51.436;6.544;2023-03-21T10:36:58;100992.28;;;11.54;100.00
14117;BME280;7137;51.436;6.544;2023-03-21T10:40:00;100983.59;;;11.80;100.00
14117;BME280;7137;51.436;6.544;2023-03-21T10:43:17;100980.47;;;11.97;100.00
14117;BME280;7137;51.436;6.544;2023-03-21T10:46:19;100976.91;;;12.25;100.00
14117;BME280;7137;51.436;6.544;2023-03-21T10:49:24;100973.16;;;12.32;99.32
14117;BME280;7137;51.436;6.544;2023-03-21T10:52:29;100972.25;;;12.33;99.09
14117;BME280;7137;51.436;6.544;2023-03-21T10:55:33;100964.69;;;12.25;96.75
14117;BME280;7137;51.436;6.544;2023-03-21T10:58:38;100957.13;;;12.41;98.30
14117;BME280;7137;51.436;6.544;2023-03-21T11:01:42;100953.25;;;12.51;96.40
14117;BME280;7137;51.436;6.544;2023-03-21T11:04:47;100953.75;;;12.62;95.17
14117;BME280;7137;51.436;6.544;2023-03-21T11:07:57;100946.28;;;12.75;95.65
14117;BME280;7137;51.436;6.544;2023-03-21T11:11:01;100956.91;;;12.95;95.35
14117;BME280;7137;51.436;6.544;2023-03-21T11:14:07;100949.13;;;13.16;93.10
14117;BME280;7137;51.436;6.544;2023-03-21T11:17:20;100953.56;;;13.37;91.30
14117;BME280;7137;51.436;6.544;2023-03-21T11:20:23;100953.75;;;13.76;90.17
14117;BME280;7137;51.436;6.544;2023-03-21T11:23:29;100949.53;;;14.14;87.72
14117;BME280;7137;51.436;6.544;2023-03-21T11:26:35;100946.59;;;14.22;87.44
14117;BME280;7137;51.436;6.544;2023-03-21T11:29:38;100945.28;;;14.12;86.37
14117;BME280;7137;51.436;6.544;2023-03-21T11:32:41;100943.38;;;13.95;86.08
14117;BME280;7137;51.436;6.544;2023-03-21T11:35:57;100938.97;;;13.95;86.39
14117;BME280;7137;51.436;6.544;2023-03-21T11:39:12;100936.50;;;13.71;87.88
14117;BME280;7137;51.436;6.544;2023-03-21T11:42:29;100934.16;;;13.85;86.99
14117;BME280;7137;51.436;6.544;2023-03-21T11:45:32;100943.97;;;14.22;85.13
14117;BME280;7137;51.436;6.544;2023-03-21T11:48:38;100942.84;;;14.27;84.09
14117;BME280;7137;51.436;6.544;2023-03-21T11:51:47;100935.63;;;14.12;84.42
14117;BME280;7137;51.436;6.544;2023-03-21T11:58:37;100937.59;;;14.27;85.67
14117;BME280;7137;51.436;6.544;2023-03-21T12:01:53;100936.56;;;13.89;84.21
14117;BME280;7137;51.436;6.544;2023-03-21T12:05:02;100934.09;;;13.64;86.18
14117;BME280;7137;51.436;6.544;2023-03-21T12:08:12;100917.88;;;13.33;85.92
14117;BME280;7137;51.436;6.544;2023-03-21T12:11:19;100909.28;;;13.06;85.61
14117;BME280;7137;51.436;6.544;2023-03-21T12:14:36;100912.38;;;12.94;89.14
14117;BME280;7137;51.436;6.544;2023-03-21T12:17:49;100923.59;;;13.21;88.71
14117;BME280;7137;51.436;6.544;2023-03-21T12:20:56;100919.28;;;13.42;87.62
14117;BME280;7137;51.436;6.544;2023-03-21T12:24:05;100916.59;;;13.43;86.62
14117;BME280;7137;51.436;6.544;2023-03-21T12:27:17;100909.25;;;13.73;85.27
14117;BME280;7137;51.436;6.544;2023-03-21T12:30:31;100904.53;;;14.02;85.31
14117;BME280;7137;51.436;6.544;2023-03-21T12:34:00;100904.56;;;14.22;82.31
14117;BME280;7137;51.436;6.544;2023-03-21T12:37:11;100889.75;;;14.19;80.99
14117;BME280;7137;51.436;6.544;2023-03-21T12:40:29;100889.69;;;14.21;82.75
14117;BME280;7137;51.436;6.544;2023-03-21T12:43:41;100881.94;;;14.38;81.53
14117;BME280;7137;51.436;6.544;2023-03-21T12:46:47;100887.88;;;14.23;83.29
14117;BME280;7137;51.436;6.544;2023-03-21T12:49:55;100882.28;;;14.51;80.75
14117;BME280;7137;51.436;6.544;2023-03-21T12:53:01;100882.19;;;14.52;80.53
14117;BME280;7137;51.436;6.544;2023-03-21T12:56:11;100866.16;;;14.38;82.33
14117;BME280;7137;51.436;6.544;2023-03-21T12:59:22;100855.50;;;14.80;80.95
14117;BME280;7137;51.436;6.544;2023-03-21T13:02:30;100849.81;;;14.71;80.32
14117;BME280;7137;51.436;6.544;2023-03-21T13:05:34;100843.75;;;14.88;79.99
14117;BME280;7137;51.436;6.544;2023-03-21T13:08:41;100848.19;;;15.04;80.48
14117;BME280;7137;51.436;6.544;2023-03-21T13:11:47;100841.31;;;15.21;79.07
14117;BME280;7137;51.436;6.544;2023-03-21T13:15:00;100841.25;;;15.39;78.24
14117;BME280;7137;51.436;6.544;2023-03-21T13:18:14;100835.59;;;14.94;78.30
14117;BME280;7137;51.436;6.544;2023-03-21T13:21:21;100834.38;;;15.18;77.75
14117;BME280;7137;51.436;6.544;2023-03-21T13:24:27;100820.28;;;15.19;78.10
14117;BME280;7137;51.436;6.544;2023-03-21T13:27:35;100817.16;;;15.30;79.59
14117;BME280;7137;51.436;6.544;2023-03-21T13:30:38;100817.22;;;15.28;76.14
14117;BME280;7137;51.436;6.544;2023-03-21T13:33:40;100809.16;;;15.14;78.61
14117;BME280;7137;51.436;6.544;2023-03-21T13:36:44;100811.09;;;15.28;78.48
14117;BME280;7137;51.436;6.544;2023-03-21T13:39:48;100805.81;;;14.93;78.86
14117;BME280;7137;51.436;6.544;2023-03-21T13:42:54;100812.75;;;14.75;79.95
14117;BME280;7137;51.436;6.544;2023-03-21T13:46:05;100821.59;;;14.93;78.17
14117;BME280;7137;51.436;6.544;2023-03-21T13:49:13;100825.50;;;14.84;80.73
14117;BME280;7137;51.436;6.544;2023-03-21T13:52:26;100817.47;;;15.05;77.78
14117;BME280;7137;51.436;6.544;2023-03-21T13:55:28;100821.16;;;14.83;79.81
14117;BME280;7137;51.436;6.544;2023-03-21T13:58:33;100824.13;;;14.76;78.59
14117;BME280;7137;51.436;6.544;2023-03-21T14:01:38;100816.75;;;14.84;79.79
14117;BME280;7137;51.436;6.544;2023-03-21T14:04:42;100810.50;;;14.68;80.25
14117;BME280;7137;51.436;6.544;2023-03-21T14:07:46;100806.22;;;14.84;79.51
14117;BME280;7137;51.436;6.544;2023-03-21T14:10:53;100797.75;;;14.96;78.75
14117;BME280;7137;51.436;6.544;2023-03-21T14:13:59;100801.31;;;14.76;80.57
14117;BME280;7137;51.436;6.544;2023-03-21T14:17:10;100804.13;;;14.54;80.58
14117;BME280;7137;51.436;6.544;2023-03-21T14:20:14;100792.00;;;14.88;80.87
14117;BME280;7137;51.436;6.544;2023-03-21T14:23:16;100789.34;;;14.52;81.39
14117;BME280;7137;51.436;6.544;2023-03-21T14:26:18;100781.28;;;14.74;79.54
14117;BME280;7137;51.436;6.544;2023-03-21T14:29:24;100781.13;;;14.96;79.61
14117;BME280;7137;51.436;6.544;2023-03-21T14:32:29;100787.56;;;15.07;79.37
14117;BME280;7137;51.436;6.544;2023-03-21T14:35:31;100790.09;;;15.62;78.17
14117;BME280;7137;51.436;6.544;2023-03-21T14:38:35;100779.75;;;15.92;75.32
14117;BME280;7137;51.436;6.544;2023-03-21T14:41:43;100777.84;;;15.79;75.43
14117;BME280;7137;51.436;6.544;2023-03-21T14:44:49;100775.13;;;16.29;73.41
14117;BME280;7137;51.436;6.544;2023-03-21T14:47:55;100764.09;;;16.38;71.48
14117;BME280;7137;51.436;6.544;2023-03-21T14:51:01;100767.31;;;16.43;66.19
14117;BME280;7137;51.436;6.544;2023-03-21T14:54:04;100763.59;;;15.98;63.06
14117;BME280;7137;51.436;6.544;2023-03-21T14:57:09;100755.38;;;16.04;66.41
14117;BME280;7137;51.436;6.544;2023-03-21T15:00:20;100767.59;;;15.72;62.35
14117;BME280;7137;51.436;6.544;2023-03-21T15:03:22;100765.13;;;16.02;61.88
14117;BME280;7137;51.436;6.544;2023-03-21T15:06:26;100759.84;;;15.87;61.93
14117;BME280;7137;51.436;6.544;2023-03-21T15:09:30;100755.53;;;15.68;62.77
14117;BME280;7137;51.436;6.544;2023-03-21T15:12:32;100745.81;;;15.86;63.31
14117;BME280;7137;51.436;6.544;2023-03-21T15:15:35;100746.53;;;15.72;61.92
14117;BME280;7137;51.436;6.544;2023-03-21T15:18:38;100734.06;;;15.76;62.51
14117;BME280;7137;51.436;6.544;2023-03-21T15:21:42;100734.22;;;15.04;63.36
14117;BME280;7137;51.436;6.544;2023-03-21T15:24:49;100735.22;;;15.19;65.04
14117;BME280;7137;51.436;6.544;2023-03-21T15:27:54;100728.91;;;15.40;64.25
14117;BME280;7137;51.436;6.544;2023-03-21T15:30:57;100718.13;;;15.62;62.71
14117;BME280;7137;51.436;6.544;2023-03-21T15:33:59;100724.88;;;15.67;61.93
14117;BME280;7137;51.436;6.544;2023-03-21T15:37:04;100730.06;;;15.52;63.21
14117;BME280;7137;51.436;6.544;2023-03-21T15:40:09;100727.41;;;15.52;64.11
14117;BME280;7137;51.436;6.544;2023-03-21T15:43:18;100726.09;;;15.60;63.49
14117;BME280;7137;51.436;6.544;2023-03-21T15:46:37;100728.50;;;15.48;64.83
14117;BME280;7137;51.436;6.544;2023-03-21T15:49:39;100736.31;;;15.14;63.65
14117;BME280;7137;51.436;6.544;2023-03-21T15:52:42;100732.91;;;14.95;64.96
14117;BME280;7137;51.436;6.544;2023-03-21T15:55:47;100729.03;;;14.85;65.63
14117;BME280;7137;51.436;6.544;2023-03-21T15:58:51;100737.81;;;14.67;64.26
14117;BME280;7137;51.436;6.544;2023-03-21T16:01:54;100732.94;;;14.76;65.70
14117;BME280;7137;51.436;6.544;2023-03-21T16:04:57;100729.38;;;14.77;65.70
14117;BME280;7137;51.436;6.544;2023-03-21T16:08:03;100728.34;;;14.99;65.11
14117;BME280;7137;51.436;6.544;2023-03-21T16:11:10;100724.88;;;14.98;64.79
14117;BME280;7137;51.436;6.544;2023-03-21T16:14:14;100722.41;;;15.12;65.31
14117;BME280;7137;51.436;6.544;2023-03-21T16:17:26;100727.00;;;14.90;66.39
14117;BME280;7137;51.436;6.544;2023-03-21T16:20:33;100718.84;;;15.13;65.33
14117;BME280;7137;51.436;6.544;2023-03-21T16:23:35;100715.03;;;15.19;66.50
14117;BME280;7137;51.436;6.544;2023-03-21T16:26:40;100711.47;;;15.03;66.25
14117;BME280;7137;51.436;6.544;2023-03-21T16:29:42;100716.50;;;14.90;67.35